Time;durP1;ratioP1;P1;durP2;ratioP2;P2;SDS_P1;SDS_P2;PMS_P1;PMS_P2;Temp;Humidity;BMP_temperature;BMP_pressure;BME280_temperature;BME280_humidity;BME280_pressure;Samples;Min_cycle;Max_cycle;Signal;HPM_P1;HPM_P2
2023/07/22 00:00:15;;;;;;;6.05;3.10;;;;;;;23.65;63.16;99464.84;4493814;31;33908;-74
2023/07/22 00:02:43;;;;;;;5.35;2.90;;;;;;;23.84;62.21;99459.34;4480265;31;33119;-75
2023/07/22 00:05:11;;;;;;;4.65;2.72;;;;;;;24.03;61.50;99460.81;4478002;31;34576;-74
2023/07/22 00:07:40;;;;;;;5.62;2.90;;;;;;;23.99;61.42;99459.09;4486960;31;34533;-74
2023/07/22 00:10:09;;;;;;;5.20;2.80;;;;;;;23.82;61.59;99455.84;4487082;31;34296;-75
2023/07/22 00:12:37;;;;;;;5.70;2.70;;;;;;;24.36;59.72;99461.16;4481059;31;33118;-73
2023/07/22 00:15:06;;;;;;;4.97;2.83;;;;;;;23.73;61.73;99468.25;4479344;31;33857;-74
2023/07/22 00:17:33;;;;;;;5.32;2.90;;;;;;;23.65;62.02;99475.41;4474767;32;33298;-76
2023/07/22 00:20:04;;;;;;;6.85;3.20;;;;;;;24.09;60.46;99478.34;4473568;32;33705;-75
2023/07/22 00:22:31;;;;;;;4.97;2.87;;;;;;;23.86;60.58;99486.62;4479434;32;33140;-75
2023/07/22 00:25:02;;;;;;;5.53;2.75;;;;;;;23.89;60.72;99478.62;4477048;32;34436;-74
2023/07/22 00:27:29;;;;;;;4.90;2.60;;;;;;;23.59;61.91;99470.22;4472258;32;32940;-75
2023/07/22 00:29:57;;;;;;;5.12;2.70;;;;;;;23.74;61.37;99472.66;4480882;32;33485;-74
2023/07/22 00:32:25;;;;;;;5.12;2.62;;;;;;;23.63;61.40;99466.63;4477407;32;33630;-75
2023/07/22 00:34:53;;;;;;;6.15;2.92;;;;;;;23.09;63.44;99469.09;4482178;32;33824;-76
2023/07/22 00:37:20;;;;;;;5.82;2.65;;;;;;;23.05;63.80;99468.25;4482844;32;34134;-74
2023/07/22 00:39:48;;;;;;;5.28;2.80;;;;;;;22.88;64.51;99455.19;4472604;32;34487;-74
2023/07/22 00:42:15;;;;;;;6.00;2.92;;;;;;;23.16;63.37;99449.66;4479191;32;33947;-73
2023/07/22 00:44:43;;;;;;;4.60;2.85;;;;;;;23.33;62.72;99459.97;4478815;32;34042;-75
2023/07/22 00:47:13;;;;;;;5.20;2.85;;;;;;;23.08;63.56;99462.03;4476461;32;34729;-74
2023/07/22 00:49:41;;;;;;;4.95;2.62;;;;;;;23.20;63.26;99466.31;4482548;32;33652;-74
2023/07/22 00:52:08;;;;;;;6.25;2.87;;;;;;;23.28;63.07;99475.03;4479560;32;33264;-75
2023/07/22 00:54:39;;;;;;;5.80;2.92;;;;;;;23.12;63.56;99484.88;4482009;32;34042;-75
2023/07/22 00:57:06;;;;;;;4.43;2.67;;;;;;;23.10;63.15;99481.38;4483384;32;33474;-74
2023/07/22 00:59:34;;;;;;;5.03;2.70;;;;;;;22.95;64.25;99499.13;4475818;32;33325;-74
2023/07/22 01:02:02;;;;;;;5.78;3.25;;;;;;;22.81;64.71;99506.31;4467250;32;33261;-75
2023/07/22 01:04:33;;;;;;;5.30;3.37;;;;;;;22.88;64.24;99508.00;4478186;32;33534;-73
2023/07/22 01:07:06;;;;;;;6.03;3.10;;;;;;;22.85;64.20;99510.69;4469796;32;33232;-75
2023/07/22 01:09:36;;;;;;;5.50;2.83;;;;;;;22.70;65.06;99518.75;4471199;32;33302;-74
2023/07/22 01:12:06;;;;;;;5.07;2.70;;;;;;;22.38;66.26;99517.25;4468510;32;33179;-74
2023/07/22 01:14:34;;;;;;;5.55;2.92;;;;;;;22.38;66.52;99514.63;4483504;32;33632;-75
2023/07/22 01:17:03;;;;;;;5.75;2.70;;;;;;;22.48;66.12;99510.12;4472841;32;34716;-73
2023/07/22 01:19:30;;;;;;;6.13;2.80;;;;;;;22.69;65.29;99514.34;4475546;31;33374;-75
2023/07/22 01:22:03;;;;;;;5.50;2.87;;;;;;;22.88;64.65;99517.69;4468119;31;33797;-75
2023/07/22 01:24:31;;;;;;;4.93;2.80;;;;;;;22.77;65.01;99525.72;4479775;31;33193;-74
2023/07/22 01:26:59;;;;;;;5.82;2.92;;;;;;;22.75;65.13;99527.50;4485435;31;34543;-74
2023/07/22 01:29:27;;;;;;;8.23;3.40;;;;;;;22.96;64.35;99532.56;4479328;31;34192;-75
2023/07/22 01:31:55;;;;;;;4.82;2.72;;;;;;;22.81;64.78;99522.16;4481836;32;33086;-73
2023/07/22 01:34:24;;;;;;;5.57;3.00;;;;;;;22.86;64.58;99525.62;4479943;32;33693;-75
2023/07/22 01:36:53;;;;;;;6.62;3.00;;;;;;;23.30;63.16;99526.09;4469341;31;33363;-75
2023/07/22 01:39:21;;;;;;;4.82;2.95;;;;;;;23.86;60.77;99524.53;4480275;31;34327;-75
2023/07/22 01:41:49;;;;;;;5.55;3.22;;;;;;;23.47;62.11;99533.81;4474434;31;33165;-75
2023/07/22 01:44:16;;;;;;;12.07;3.30;;;;;;;23.48;62.04;99540.84;4468351;32;32202;-75
2023/07/22 01:46:44;;;;;;;6.00;3.00;;;;;;;23.83;60.92;99547.50;4467930;31;33361;-73
2023/07/22 01:49:12;;;;;;;5.18;2.78;;;;;;;23.22;62.74;99544.69;4468647;32;33296;-75
2023/07/22 01:51:40;;;;;;;5.40;3.10;;;;;;;23.19;63.02;99544.72;4482894;32;32928;-74
2023/07/22 01:54:09;;;;;;;5.57;2.97;;;;;;;23.20;62.98;99554.41;4491058;31;34595;-75
2023/07/22 01:56:37;;;;;;;5.20;3.20;;;;;;;23.31;62.45;99557.81;4482704;31;34609;-75
2023/07/22 01:59:05;;;;;;;5.32;2.85;;;;;;;23.28;62.48;99560.47;4472079;31;33531;-73
2023/07/22 02:01:33;;;;;;;5.78;3.03;;;;;;;22.94;63.74;99563.41;4478670;31;31992;-74
2023/07/22 02:04:01;;;;;;;6.35;3.12;;;;;;;22.88;64.26;99566.09;4482135;31;33864;-74
2023/07/22 02:06:28;;;;;;;6.12;3.28;;;;;;;23.04;63.71;99572.16;4478444;31;33647;-75
2023/07/22 02:08:57;;;;;;;6.72;3.10;;;;;;;22.93;63.83;99566.09;4482855;31;33506;-74
2023/07/22 02:11:25;;;;;;;8.50;3.40;;;;;;;23.48;62.03;99570.81;4479672;32;31807;-74
2023/07/22 02:13:52;;;;;;;6.05;3.22;;;;;;;23.53;61.42;99578.69;4471568;32;33489;-74
2023/07/22 02:16:20;;;;;;;5.30;2.93;;;;;;;23.69;60.96;99588.19;4478580;32;33659;-73
2023/07/22 02:18:47;;;;;;;6.65;3.05;;;;;;;24.12;59.24;99582.34;4482033;32;33794;-75
2023/07/22 02:21:15;;;;;;;4.82;3.00;;;;;;;24.27;58.60;99581.28;4477817;32;33579;-75
2023/07/22 02:23:43;;;;;;;5.33;3.07;;;;;;;24.34;58.18;99582.06;4476886;32;33721;-75
2023/07/22 02:26:10;;;;;;;6.45;3.00;;;;;;;24.50;57.51;99583.56;4470295;32;34534;-74
2023/07/22 02:28:38;;;;;;;5.70;3.12;;;;;;;24.41;57.52;99589.00;4478559;32;33687;-74
2023/07/22 02:31:07;;;;;;;5.57;3.37;;;;;;;24.39;58.07;99593.44;4471796;32;34151;-74
2023/07/22 02:33:35;;;;;;;6.10;3.17;;;;;;;24.21;58.54;99581.37;4478552;32;33203;-75
2023/07/22 02:36:02;;;;;;;5.47;3.10;;;;;;;23.94;59.49;99585.28;4472242;32;33511;-74
2023/07/22 02:38:30;;;;;;;5.57;3.22;;;;;;;24.02;59.46;99579.88;4470258;32;33813;-74
2023/07/22 02:41:03;;;;;;;5.73;3.40;;;;;;;23.73;60.28;99587.25;4469448;32;33858;-74
2023/07/22 02:43:31;;;;;;;5.50;3.75;;;;;;;23.42;61.62;99593.81;4471568;32;33368;-75
2023/07/22 02:46:01;;;;;;;6.37;3.58;;;;;;;23.87;60.13;99596.81;4479716;32;33334;-75
2023/07/22 02:48:29;;;;;;;5.57;3.50;;;;;;;23.62;60.81;99599.72;4469195;32;33525;-75
2023/07/22 02:51:07;;;;;;;6.47;4.22;;;;;;;23.34;61.90;99607.97;4470118;32;33176;-74
2023/07/22 02:53:36;;;;;;;7.67;4.07;;;;;;;23.61;61.00;99605.06;4469600;32;33353;-73
2023/07/22 02:56:07;;;;;;;7.65;3.90;;;;;;;23.60;61.23;99598.88;4475093;32;32973;-75
2023/07/22 02:58:36;;;;;;;6.00;3.70;;;;;;;24.01;59.72;99605.47;4482591;32;32971;-75
2023/07/22 03:01:04;;;;;;;6.97;3.70;;;;;;;24.35;58.75;99602.34;4476816;32;33065;-75
2023/07/22 03:03:35;;;;;;;6.50;4.20;;;;;;;23.75;60.44;99614.56;4481603;32;33502;-75
2023/07/22 03:06:04;;;;;;;8.40;3.92;;;;;;;23.61;61.23;99610.34;4482019;32;33641;-74
2023/07/22 03:08:31;;;;;;;7.30;4.18;;;;;;;23.42;61.78;99621.09;4469389;32;32886;-75
2023/07/22 03:10:59;;;;;;;6.68;4.10;;;;;;;23.28;62.26;99623.03;4468048;32;33093;-74
2023/07/22 03:13:29;;;;;;;6.10;3.97;;;;;;;23.10;63.14;99618.78;4467873;32;33996;-75
2023/07/22 03:15:57;;;;;;;7.37;3.78;;;;;;;23.39;62.09;99620.25;4466817;32;34319;-74
2023/07/22 03:18:25;;;;;;;6.85;4.40;;;;;;;23.19;62.67;99615.19;4467945;32;33594;-73
2023/07/22 03:20:53;;;;;;;6.40;4.00;;;;;;;23.28;62.36;99613.31;4467922;32;34004;-75
2023/07/22 03:23:20;;;;;;;7.12;5.35;;;;;;;23.12;62.89;99609.06;4468017;32;32976;-73
2023/07/22 03:25:48;;;;;;;7.43;4.90;;;;;;;23.15;62.43;99624.91;4472657;32;34558;-74
2023/07/22 03:28:16;;;;;;;8.98;4.80;;;;;;;22.48;65.36;99624.50;4479699;32;33813;-74
2023/07/22 03:30:44;;;;;;;8.70;5.72;;;;;;;22.24;66.33;99619.34;4473818;32;33692;-75
2023/07/22 03:33:11;;;;;;;8.25;4.30;;;;;;;22.64;64.79;99614.72;4481081;32;33924;-74
2023/07/22 03:35:39;;;;;;;6.83;4.00;;;;;;;22.50;65.43;99628.03;4479508;32;33670;-75
2023/07/22 03:38:08;;;;;;;9.23;5.10;;;;;;;22.37;66.28;99632.50;4475369;32;33611;-75
2023/07/22 03:40:37;;;;;;;9.27;6.82;;;;;;;22.11;67.07;99629.09;4471846;32;31852;-75
2023/07/22 03:43:05;;;;;;;10.40;7.43;;;;;;;22.34;65.69;99632.50;4472002;32;33327;-73
2023/07/22 03:45:32;;;;;;;8.35;5.20;;;;;;;22.44;65.30;99633.31;4471387;32;34134;-73
2023/07/22 03:48:00;;;;;;;10.63;7.10;;;;;;;22.10;67.61;99635.25;4473311;32;33897;-73
2023/07/22 03:50:28;;;;;;;7.70;5.23;;;;;;;22.22;66.43;99637.81;4475184;32;33224;-73
2023/07/22 03:52:56;;;;;;;7.00;4.72;;;;;;;21.93;68.19;99638.84;4482546;32;34453;-73
2023/07/22 03:55:23;;;;;;;9.73;5.07;;;;;;;21.93;68.32;99635.34;4483904;32;33780;-73
2023/07/22 03:57:51;;;;;;;8.30;5.10;;;;;;;22.05;67.95;99637.03;4470007;32;33741;-75
2023/07/22 04:00:20;;;;;;;10.03;4.77;;;;;;;22.09;67.72;99651.97;4473166;32;33759;-75
2023/07/22 04:02:48;;;;;;;6.85;4.70;;;;;;;22.49;66.44;99652.66;4472665;32;33815;-73
2023/07/22 04:05:15;;;;;;;8.00;4.57;;;;;;;22.45;66.52;99650.06;4480920;32;33468;-75
2023/07/22 04:07:44;;;;;;;7.57;4.40;;;;;;;22.51;66.20;99650.87;4470792;32;34422;-74
2023/07/22 04:10:13;;;;;;;8.15;4.93;;;;;;;22.62;65.63;99642.00;4471001;32;33181;-74
2023/07/22 04:12:40;;;;;;;8.30;4.57;;;;;;;22.76;65.25;99635.75;4471262;32;33841;-74
2023/07/22 04:15:09;;;;;;;8.32;4.55;;;;;;;23.47;62.73;99635.16;4473981;32;34414;-74
2023/07/22 04:17:37;;;;;;;6.50;4.10;;;;;;;23.17;63.52;99633.69;4481985;31;33492;-74
2023/07/22 04:20:07;;;;;;;6.60;3.97;;;;;;;23.69;61.93;99638.44;4487405;31;33165;-75
2023/07/22 04:22:35;;;;;;;6.47;4.37;;;;;;;23.42;62.42;99633.44;4479804;31;34131;-74
2023/07/22 04:25:04;;;;;;;7.53;4.25;;;;;;;23.47;62.56;99628.97;4479277;31;34521;-73
2023/07/22 04:27:31;;;;;;;6.90;3.70;;;;;;;23.33;62.90;99629.13;4482029;31;33670;-75
2023/07/22 04:29:59;;;;;;;6.50;4.00;;;;;;;23.73;61.49;99621.63;4485710;31;34117;-73
2023/07/22 04:32:26;;;;;;;5.97;4.00;;;;;;;23.46;62.37;99625.47;4480680;32;33885;-75
2023/07/22 04:34:54;;;;;;;7.72;4.10;;;;;;;23.96;60.75;99633.75;4469839;32;32254;-74
2023/07/22 04:37:22;;;;;;;8.73;4.37;;;;;;;23.74;61.47;99633.97;4474540;32;33917;-73
2023/07/22 04:39:50;;;;;;;7.07;4.03;;;;;;;24.32;59.57;99640.31;4479375;32;34146;-75
2023/07/22 04:42:17;;;;;;;8.27;4.25;;;;;;;24.16;59.92;99636.13;4479725;32;33803;-75
2023/07/22 04:44:45;;;;;;;6.62;3.80;;;;;;;24.34;59.22;99640.31;4483571;31;33205;-75
2023/07/22 04:47:13;;;;;;;7.47;4.07;;;;;;;24.47;58.85;99641.88;4478865;31;34405;-74
2023/07/22 04:49:40;;;;;;;6.80;4.60;;;;;;;24.48;58.81;99640.97;4480213;32;33145;-75
2023/07/22 04:52:08;;;;;;;7.70;4.10;;;;;;;24.31;59.24;99648.28;4474500;32;34484;-73
2023/07/22 04:54:35;;;;;;;6.97;4.70;;;;;;;24.59;58.61;99650.56;4478724;32;34508;-75
2023/07/22 04:57:03;;;;;;;6.10;4.68;;;;;;;24.66;58.30;99657.53;4479226;31;33784;-74
2023/07/22 04:59:33;;;;;;;8.05;4.47;;;;;;;24.60;58.44;99652.31;4479505;32;32094;-74
2023/07/22 05:02:01;;;;;;;9.27;5.93;;;;;;;24.31;59.43;99653.56;4481609;32;33569;-74
2023/07/22 05:04:28;;;;;;;5.95;4.37;;;;;;;24.55;58.85;99655.06;4484062;31;33635;-74
2023/07/22 05:06:56;;;;;;;9.00;5.55;;;;;;;24.13;60.33;99655.56;4495974;31;34455;-74
2023/07/22 05:09:23;;;;;;;7.07;5.05;;;;;;;24.28;60.06;99657.16;4475226;31;33302;-75
2023/07/22 05:11:51;;;;;;;9.32;6.10;;;;;;;24.22;60.29;99657.25;4488931;31;33736;-73
2023/07/22 05:14:18;;;;;;;9.55;6.18;;;;;;;24.31;60.12;99658.87;4492872;31;33873;-75
2023/07/22 05:16:46;;;;;;;8.68;5.82;;;;;;;24.27;60.58;99659.81;4484034;31;34134;-75
2023/07/22 05:19:14;;;;;;;7.87;4.80;;;;;;;24.08;61.21;99667.97;4483391;31;33396;-74
2023/07/22 05:21:41;;;;;;;10.53;6.90;;;;;;;24.26;60.73;99656.28;4469181;32;32177;-75
2023/07/22 05:24:09;;;;;;;8.37;5.40;;;;;;;24.14;61.00;99665.28;4495604;31;34791;-74
2023/07/22 05:26:36;;;;;;;6.78;5.07;;;;;;;23.94;62.26;99662.84;4490332;31;32226;-75
2023/07/22 05:29:04;;;;;;;8.02;6.10;;;;;;;23.96;61.92;99670.78;4490776;31;32011;-74
2023/07/22 05:31:31;;;;;;;9.18;5.72;;;;;;;23.63;63.37;99672.87;4484140;31;34483;-74
2023/07/22 05:33:59;;;;;;;9.05;5.90;;;;;;;23.70;63.01;99679.88;4483143;31;34544;-74
2023/07/22 05:36:28;;;;;;;9.13;5.90;;;;;;;23.90;62.60;99681.44;4484878;31;33950;-73
2023/07/22 05:38:57;;;;;;;10.27;6.28;;;;;;;23.74;63.29;99675.41;4482460;31;32915;-75
2023/07/22 05:41:25;;;;;;;9.20;6.23;;;;;;;23.72;63.06;99678.06;4482772;32;35901;-74
2023/07/22 05:43:53;;;;;;;8.63;6.20;;;;;;;23.45;63.70;99678.34;4482646;32;33458;-73
2023/07/22 05:46:21;;;;;;;7.60;5.53;;;;;;;23.47;64.07;99671.28;4482630;32;33814;-74
2023/07/22 05:48:48;;;;;;;9.70;6.37;;;;;;;23.41;64.17;99681.91;4482576;32;33093;-74
2023/07/22 05:51:16;;;;;;;8.13;6.05;;;;;;;23.51;64.08;99683.59;4482461;32;34609;-75
2023/07/22 05:53:44;;;;;;;6.85;5.28;;;;;;;23.36;64.80;99696.03;4463115;32;33862;-75
2023/07/22 05:56:11;;;;;;;9.05;6.37;;;;;;;23.26;65.45;99698.81;4466181;32;34404;-74
2023/07/22 05:58:39;;;;;;;7.87;5.70;;;;;;;23.45;65.17;99692.47;4484851;31;33655;-73
2023/07/22 06:01:07;;;;;;;9.10;5.80;;;;;;;23.29;65.22;99704.91;4477472;31;34574;-74
2023/07/22 06:03:34;;;;;;;7.78;5.43;;;;;;;23.44;65.19;99708.31;4483706;31;33971;-74
2023/07/22 06:06:02;;;;;;;11.10;5.37;;;;;;;23.69;64.35;99704.53;4491373;31;34152;-74
2023/07/22 06:08:29;;;;;;;9.07;6.10;;;;;;;23.71;63.30;99697.47;4490342;31;33124;-74
2023/07/22 06:10:57;;;;;;;7.25;5.03;;;;;;;23.82;62.91;99699.19;4484720;31;34427;-73
2023/07/22 06:13:25;;;;;;;7.10;5.03;;;;;;;23.78;63.08;99703.63;4486494;31;33969;-75
2023/07/22 06:15:52;;;;;;;8.45;5.20;;;;;;;23.61;64.03;99701.09;4488493;31;34026;-74
2023/07/22 06:18:20;;;;;;;7.53;4.62;;;;;;;23.81;63.54;99703.56;4479380;31;32633;-74
2023/07/22 06:20:47;;;;;;;6.80;4.68;;;;;;;23.75;62.42;99699.19;4489025;31;33595;-74
2023/07/22 06:23:15;;;;;;;6.93;4.70;;;;;;;23.85;62.04;99689.41;4488355;31;34001;-75
2023/07/22 06:25:43;;;;;;;7.75;4.22;;;;;;;23.80;62.07;99685.06;4479237;31;34043;-73
2023/07/22 06:28:10;;;;;;;6.47;4.53;;;;;;;24.04;61.51;99690.06;4481952;31;34066;-73
2023/07/22 06:30:38;;;;;;;7.10;4.28;;;;;;;24.07;60.55;99695.34;4488705;31;33436;-74
2023/07/22 06:33:05;;;;;;;6.82;4.37;;;;;;;24.16;60.99;99704.06;4489537;31;32346;-75
2023/07/22 06:35:33;;;;;;;5.87;4.00;;;;;;;24.13;60.48;99695.25;4479381;32;33751;-74
2023/07/22 06:38:01;;;;;;;6.53;3.90;;;;;;;24.34;60.50;99701.19;4484881;31;32982;-74
2023/07/22 06:40:28;;;;;;;6.40;3.70;;;;;;;24.32;60.69;99698.56;4494651;31;33771;-74
2023/07/22 06:42:56;;;;;;;6.65;4.45;;;;;;;24.21;60.71;99708.41;4483387;31;33267;-74
2023/07/22 06:45:23;;;;;;;6.20;4.07;;;;;;;24.34;60.72;99703.84;4485612;31;33155;-74
2023/07/22 06:47:51;;;;;;;7.55;3.92;;;;;;;24.34;60.78;99706.50;4487513;31;33817;-76
2023/07/22 06:50:18;;;;;;;5.93;4.00;;;;;;;24.70;59.34;99702.47;4487862;31;33564;-74
2023/07/22 06:52:46;;;;;;;9.75;3.95;;;;;;;25.01;57.74;99695.84;4490142;31;33985;-74
2023/07/22 06:55:13;;;;;;;6.25;3.87;;;;;;;25.12;56.84;99699.19;4487493;31;33662;-74
2023/07/22 06:57:41;;;;;;;7.53;4.55;;;;;;;25.10;57.08;99714.25;4487832;31;33067;-73
2023/07/22 07:00:11;;;;;;;7.60;3.97;;;;;;;25.19;56.84;99705.25;4483272;31;33765;-73
2023/07/22 07:02:39;;;;;;;6.53;3.70;;;;;;;25.18;56.63;99709.69;4470085;31;34039;-73
2023/07/22 07:05:07;;;;;;;8.23;4.00;;;;;;;25.35;55.99;99711.22;4487315;31;33700;-74
2023/07/22 07:07:34;;;;;;;6.13;3.87;;;;;;;25.44;55.12;99719.00;4490594;31;35096;-73
2023/07/22 07:10:02;;;;;;;7.70;4.10;;;;;;;25.41;54.98;99716.41;4485667;31;34336;-74
2023/07/22 07:12:30;;;;;;;7.28;3.60;;;;;;;25.47;53.95;99718.97;4487799;31;34067;-74
2023/07/22 07:14:57;;;;;;;8.03;3.90;;;;;;;25.56;53.78;99716.16;4489408;31;34536;-74
2023/07/22 07:17:25;;;;;;;6.68;4.03;;;;;;;25.68;54.07;99721.22;4487225;31;33879;-74
2023/07/22 07:19:53;;;;;;;6.32;3.80;;;;;;;25.85;53.72;99722.69;4489444;31;33689;-73
2023/07/22 07:22:20;;;;;;;6.82;3.65;;;;;;;26.02;52.88;99720.63;4488512;31;34515;-74
2023/07/22 07:24:48;;;;;;;6.22;3.90;;;;;;;25.89;53.88;99724.38;4493854;31;34638;-74
2023/07/22 07:27:15;;;;;;;5.97;3.62;;;;;;;26.16;53.34;99722.12;4493601;31;34135;-73
2023/07/22 07:29:43;;;;;;;5.30;3.60;;;;;;;26.35;52.75;99728.81;4492287;31;33939;-75
2023/07/22 07:32:23;;;;;;;7.37;3.90;;;;;;;26.65;51.94;99732.59;4495347;31;32810;-73
2023/07/22 07:34:51;;;;;;;6.07;3.67;;;;;;;26.73;51.83;99740.41;4485984;31;32573;-73
2023/07/22 07:37:19;;;;;;;6.03;3.70;;;;;;;26.79;51.23;99745.59;4492325;31;33254;-76
2023/07/22 07:39:46;;;;;;;6.68;3.80;;;;;;;26.78;50.54;99738.53;4495046;31;34548;-74
2023/07/22 07:42:14;;;;;;;8.20;3.67;;;;;;;26.70;50.77;99748.47;4494869;31;33923;-74
2023/07/22 07:44:41;;;;;;;8.25;3.90;;;;;;;26.95;49.69;99761.19;4492153;31;33428;-75
2023/07/22 07:47:09;;;;;;;8.38;4.25;;;;;;;26.93;49.26;99757.69;4465352;31;33276;-75
2023/07/22 07:49:36;;;;;;;8.35;4.50;;;;;;;26.96;49.43;99762.94;4484628;31;34027;-75
2023/07/22 07:52:04;;;;;;;8.50;4.60;;;;;;;27.02;49.04;99771.66;4485668;31;34023;-74
2023/07/22 07:54:32;;;;;;;10.13;5.22;;;;;;;26.80;49.15;99773.91;4485021;31;33346;-75
2023/07/22 07:57:00;;;;;;;7.00;4.40;;;;;;;26.99;48.63;99781.47;4485426;31;33374;-72
2023/07/22 07:59:27;;;;;;;7.50;3.83;;;;;;;27.16;48.30;99781.97;4484748;31;33723;-74
2023/07/22 08:01:55;;;;;;;4.97;3.77;;;;;;;27.15;47.90;99782.00;4473820;31;33320;-73
2023/07/22 08:04:23;;;;;;;5.43;3.80;;;;;;;27.13;47.86;99776.69;4481759;31;33459;-74
2023/07/22 08:06:50;;;;;;;7.43;3.70;;;;;;;27.44;47.45;99781.31;4488218;31;33428;-74
2023/07/22 08:09:21;;;;;;;7.18;3.67;;;;;;;27.51;47.78;99787.37;4480680;31;33862;-74
2023/07/22 08:11:49;;;;;;;8.27;4.07;;;;;;;27.64;47.57;99789.69;4472640;31;34245;-75
2023/07/22 08:14:18;;;;;;;5.47;3.58;;;;;;;27.85;47.74;99784.69;4484417;31;33638;-74
2023/07/22 08:16:45;;;;;;;6.50;3.50;;;;;;;28.22;46.50;99781.97;4484854;31;33164;-73
2023/07/22 08:19:13;;;;;;;5.30;3.50;;;;;;;28.34;45.67;99794.06;4488530;31;34421;-76
2023/07/22 08:21:40;;;;;;;6.37;3.40;;;;;;;28.48;45.49;99798.97;4487631;31;34517;-73
2023/07/22 08:24:08;;;;;;;7.20;3.50;;;;;;;28.82;44.75;99806.88;4477894;31;33823;-75
2023/07/22 08:26:36;;;;;;;5.68;3.25;;;;;;;28.81;43.68;99818.47;4485997;31;33052;-73
2023/07/22 08:29:04;;;;;;;6.60;3.50;;;;;;;28.91;44.25;99818.19;4487164;31;33742;-73
2023/07/22 08:31:32;;;;;;;8.05;3.40;;;;;;;28.99;43.79;99824.16;4483933;31;34291;-74
2023/07/22 08:34:00;;;;;;;6.70;3.45;;;;;;;29.01;44.53;99827.63;4489302;31;33706;-73
2023/07/22 08:36:27;;;;;;;5.15;3.50;;;;;;;29.23;43.39;99819.91;4493284;31;33062;-75
2023/07/22 08:38:55;;;;;;;4.70;3.22;;;;;;;29.54;43.78;99833.13;4496551;31;34123;-75
2023/07/22 08:41:25;;;;;;;5.12;3.37;;;;;;;29.58;43.17;99837.44;4496145;31;34496;-73
2023/07/22 08:43:54;;;;;;;4.90;3.25;;;;;;;29.63;43.01;99836.41;4472799;31;33193;-75
2023/07/22 08:46:22;;;;;;;7.20;3.00;;;;;;;29.76;42.34;99845.78;4493071;31;34033;-74
2023/07/22 08:48:53;;;;;;;5.35;2.97;;;;;;;29.71;41.63;99837.00;4486039;31;34152;-74
2023/07/22 08:51:23;;;;;;;5.10;2.95;;;;;;;29.91;40.36;99837.25;4485835;31;33393;-75
2023/07/22 08:53:51;;;;;;;6.47;2.95;;;;;;;29.81;39.73;99845.66;4476169;31;35172;-75
2023/07/22 08:56:35;;;;;;;5.40;2.75;;;;;;;29.56;40.79;99844.59;4492428;31;33167;-75
2023/07/22 08:59:05;;;;;;;4.70;2.87;;;;;;;29.63;40.21;99855.09;4481791;31;32306;-73
2023/07/22 09:01:35;;;;;;;4.62;2.90;;;;;;;29.51;41.05;99846.53;4488541;31;33718;-73
2023/07/22 09:04:04;;;;;;;6.07;3.10;;;;;;;29.72;41.04;99846.78;4496340;31;32794;-73
2023/07/22 09:06:33;;;;;;;5.43;2.70;;;;;;;29.86;40.12;99847.19;4496852;31;32914;-75
2023/07/22 09:09:06;;;;;;;5.22;2.90;;;;;;;30.02;40.01;99852.03;4477612;32;33830;-75
2023/07/22 09:11:35;;;;;;;4.43;2.60;;;;;;;30.02;39.90;99852.91;4485154;31;34212;-73
2023/07/22 09:14:06;;;;;;;4.12;2.40;;;;;;;30.11;38.38;99849.03;4493502;31;33727;-74
2023/07/22 09:16:35;;;;;;;4.33;2.30;;;;;;;30.11;37.70;99851.72;4494921;31;33072;-73
2023/07/22 09:19:05;;;;;;;4.57;2.25;;;;;;;30.01;38.01;99852.97;4481950;31;33671;-74
2023/07/22 09:21:35;;;;;;;3.67;2.25;;;;;;;30.03;37.45;99851.09;4489444;31;33206;-74
2023/07/22 09:24:21;;;;;;;4.43;2.20;;;;;;;30.02;37.59;99852.03;4490259;31;34009;-73
2023/07/22 09:26:51;;;;;;;4.22;2.22;;;;;;;29.87;38.23;99842.75;4492324;31;33219;-74
2023/07/22 09:29:32;;;;;;;3.95;2.45;;;;;;;30.03;38.44;99853.78;4491483;31;33248;-74
2023/07/22 09:32:00;;;;;;;5.60;2.10;;;;;;;30.12;37.62;99848.13;4485503;31;32851;-74
2023/07/22 09:34:28;;;;;;;4.37;2.20;;;;;;;30.20;37.80;99846.03;4487254;31;33426;-74
2023/07/22 09:36:57;;;;;;;4.65;2.30;;;;;;;30.33;37.62;99841.19;4488774;31;32735;-73
2023/07/22 09:39:24;;;;;;;4.22;1.92;;;;;;;30.61;36.89;99841.03;4491586;31;33743;-75
2023/07/22 09:41:52;;;;;;;4.80;2.25;;;;;;;30.49;36.49;99838.81;4488633;31;33409;-73
2023/07/22 09:44:21;;;;;;;4.50;2.28;;;;;;;30.49;36.46;99837.00;4490466;31;33418;-74
2023/07/22 09:46:49;;;;;;;4.18;2.40;;;;;;;30.57;37.17;99828.72;4483044;31;33479;-76
2023/07/22 09:49:18;;;;;;;4.00;2.28;;;;;;;30.62;36.74;99841.87;4484581;31;33459;-75
2023/07/22 09:51:46;;;;;;;3.70;2.15;;;;;;;30.50;37.06;99835.19;4487192;31;33819;-74
2023/07/22 09:54:30;;;;;;;6.60;2.45;;;;;;;30.69;36.52;99830.91;4488415;31;32767;-74
2023/07/22 09:56:59;;;;;;;4.62;2.30;;;;;;;30.67;36.67;99832.78;4489818;31;33645;-76
2023/07/22 09:59:29;;;;;;;4.60;2.22;;;;;;;30.70;37.25;99838.00;4483692;31;34386;-76
2023/07/22 10:01:58;;;;;;;3.22;2.05;;;;;;;30.80;36.49;99843.03;4466264;31;34584;-76
2023/07/22 10:04:28;;;;;;;4.47;2.20;;;;;;;30.68;36.73;99837.19;4443451;31;882556;-76
2023/07/22 10:06:56;;;;;;;4.57;2.50;;;;;;;30.91;35.77;99838.16;4488998;31;32846;-76
2023/07/22 10:09:24;;;;;;;4.30;1.95;;;;;;;31.06;34.72;99840.25;4482742;31;33572;-74
2023/07/22 10:11:51;;;;;;;4.12;2.00;;;;;;;30.78;35.33;99846.59;4492594;31;33735;-75
2023/07/22 10:14:19;;;;;;;4.50;1.97;;;;;;;30.70;34.57;99846.03;4467894;31;32159;-73
2023/07/22 10:16:46;;;;;;;3.33;2.00;;;;;;;30.65;35.37;99845.31;4481605;31;32915;-75
2023/07/22 10:19:15;;;;;;;5.75;2.10;;;;;;;30.72;35.53;99844.19;4489864;31;34380;-74
2023/07/22 10:21:43;;;;;;;4.30;2.15;;;;;;;30.74;35.18;99847.66;4490400;31;33563;-74
2023/07/22 10:24:12;;;;;;;4.40;1.90;;;;;;;30.76;35.10;99851.16;4466831;31;33468;-74
2023/07/22 10:26:39;;;;;;;4.57;2.13;;;;;;;30.93;35.63;99863.06;4480302;31;33224;-76
2023/07/22 10:29:14;;;;;;;4.50;2.00;;;;;;;30.71;35.53;99852.25;4481740;31;33395;-76
2023/07/22 10:31:42;;;;;;;3.67;1.80;;;;;;;30.90;34.88;99857.81;4486613;31;34505;-74
2023/07/22 10:34:10;;;;;;;3.72;1.80;;;;;;;30.63;35.12;99863.22;4489605;31;33684;-74
2023/07/22 10:36:37;;;;;;;4.12;2.10;;;;;;;30.50;35.25;99853.91;4490889;31;33938;-75
2023/07/22 10:39:05;;;;;;;5.62;2.10;;;;;;;30.76;34.88;99843.13;4486356;31;34296;-75
2023/07/22 10:41:33;;;;;;;3.87;1.87;;;;;;;30.83;35.09;99856.25;4489447;31;33701;-75
2023/07/22 10:44:01;;;;;;;3.25;1.83;;;;;;;30.80;34.83;99845.69;4465190;32;34423;-76
2023/07/22 10:46:43;;;;;;;3.75;1.73;;;;;;;30.61;35.16;99846.38;4488663;31;32824;-75
2023/07/22 10:49:16;;;;;;;3.90;1.83;;;;;;;30.83;33.51;99841.09;4484746;31;33116;-75
2023/07/22 10:51:49;;;;;;;4.97;1.90;;;;;;;30.86;33.78;99829.41;4493777;31;32208;-76
2023/07/22 10:54:33;;;;;;;4.47;1.80;;;;;;;30.88;34.31;99839.09;4483616;31;33303;-76
2023/07/22 10:57:27;;;;;;;4.15;1.85;;;;;;;31.13;33.68;99833.72;4491527;31;32509;-75
2023/07/22 10:59:56;;;;;;;3.95;2.00;;;;;;;31.28;32.43;99831.38;4478688;31;33862;-76
2023/07/22 11:02:25;;;;;;;5.43;1.90;;;;;;;31.05;33.64;99840.31;4487249;31;33327;-75
2023/07/22 11:04:52;;;;;;;3.62;1.80;;;;;;;30.97;33.48;99837.94;4491839;31;33205;-76
2023/07/22 11:07:51;;;;;;;3.35;1.80;;;;;;;30.93;33.88;99837.16;4481593;31;33755;-77
2023/07/22 11:10:19;;;;;;;3.87;1.70;;;;;;;30.75;33.93;99827.13;4490561;31;33087;-76
2023/07/22 11:12:48;;;;;;;3.85;1.90;;;;;;;31.06;33.57;99829.56;4488607;31;34438;-75
2023/07/22 11:15:17;;;;;;;3.97;1.70;;;;;;;31.15;33.38;99821.13;4491462;31;33675;-76
2023/07/22 11:17:45;;;;;;;4.15;1.80;;;;;;;31.17;32.59;99821.06;4493712;31;33740;-76
2023/07/22 11:20:12;;;;;;;3.55;1.70;;;;;;;31.20;32.34;99838.84;4489782;31;34432;-76
2023/07/22 11:22:40;;;;;;;3.42;1.50;;;;;;;31.21;32.88;99824.50;4489448;31;33580;-76
2023/07/22 11:25:09;;;;;;;3.83;1.80;;;;;;;31.38;32.51;99821.16;4490984;31;33401;-75
2023/07/22 11:27:37;;;;;;;3.23;1.60;;;;;;;31.41;32.72;99824.59;4483440;31;34023;-76
2023/07/22 11:30:04;;;;;;;4.03;1.70;;;;;;;31.63;32.10;99826.41;4491987;31;33683;-75
2023/07/22 11:32:32;;;;;;;4.55;1.92;;;;;;;31.55;31.81;99829.41;4489533;31;33603;-76
2023/07/22 11:35:00;;;;;;;3.87;1.92;;;;;;;31.59;31.51;99830.16;4482657;31;33511;-76
2023/07/22 11:37:28;;;;;;;3.28;1.35;;;;;;;31.62;31.76;99819.28;4492071;31;33191;-76
2023/07/22 11:40:02;;;;;;;4.27;1.53;;;;;;;31.72;30.69;99807.28;4481254;31;33689;-75